sensor_id;sensor_type;location;lat;lon;timestamp;P1;durP1;ratioP1;P2;durP2;ratioP2
38465;SDS011;24244;51.950;5.902;2023-05-14T00:02:19;4.90;;;4.05;;
38465;SDS011;24244;51.950;5.902;2023-05-14T00:04:51;6.55;;;4.75;;
38465;SDS011;24244;51.950;5.902;2023-05-14T00:07:18;6.63;;;5.07;;
38465;SDS011;24244;51.950;5.902;2023-05-14T00:09:48;5.35;;;3.47;;
38465;SDS011;24244;51.950;5.902;2023-05-14T00:12:15;6.80;;;4.35;;
38465;SDS011;24244;51.950;5.902;2023-05-14T00:14:42;5.55;;;4.28;;
38465;SDS011;24244;51.950;5.902;2023-05-14T00:17:09;6.65;;;4.90;;
38465;SDS011;24244;51.950;5.902;2023-05-14T00:19:36;6.68;;;4.97;;
38465;SDS011;24244;51.950;5.902;2023-05-14T00:22:04;6.15;;;4.85;;
38465;SDS011;24244;51.950;5.902;2023-05-14T00:24:32;7.25;;;4.68;;
38465;SDS011;24244;51.950;5.902;2023-05-14T00:26:59;6.72;;;4.88;;
38465;SDS011;24244;51.950;5.902;2023-05-14T00:29:25;5.75;;;4.03;;
38465;SDS011;24244;51.950;5.902;2023-05-14T00:31:52;5.60;;;3.92;;
38465;SDS011;24244;51.950;5.902;2023-05-14T00:34:19;6.63;;;4.30;;
38465;SDS011;24244;51.950;5.902;2023-05-14T00:36:46;7.15;;;5.20;;
38465;SDS011;24244;51.950;5.902;2023-05-14T00:39:14;6.78;;;4.28;;
38465;SDS011;24244;51.950;5.902;2023-05-14T00:41:41;6.53;;;4.93;;
38465;SDS011;24244;51.950;5.902;2023-05-14T00:44:08;6.70;;;4.20;;
38465;SDS011;24244;51.950;5.902;2023-05-14T00:46:35;6.50;;;4.38;;
38465;SDS011;24244;51.950;5.902;2023-05-14T00:49:02;5.45;;;3.75;;
38465;SDS011;24244;51.950;5.902;2023-05-14T00:51:29;7.63;;;5.30;;
38465;SDS011;24244;51.950;5.902;2023-05-14T00:53:56;5.32;;;4.00;;
38465;SDS011;24244;51.950;5.902;2023-05-14T00:56:27;7.45;;;5.10;;
38465;SDS011;24244;51.950;5.902;2023-05-14T01:01:49;7.15;;;5.43;;
38465;SDS011;24244;51.950;5.902;2023-05-14T01:04:16;5.90;;;4.35;;
38465;SDS011;24244;51.950;5.902;2023-05-14T01:06:45;6.75;;;4.18;;
38465;SDS011;24244;51.950;5.902;2023-05-14T01:09:21;6.55;;;4.25;;
38465;SDS011;24244;51.950;5.902;2023-05-14T01:11:54;5.75;;;3.45;;
38465;SDS011;24244;51.950;5.902;2023-05-14T01:14:27;5.68;;;4.05;;
38465;SDS011;24244;51.950;5.902;2023-05-14T01:17:03;5.03;;;3.72;;
38465;SDS011;24244;51.950;5.902;2023-05-14T01:19:38;5.20;;;3.70;;
38465;SDS011;24244;51.950;5.902;2023-05-14T01:22:08;7.82;;;4.07;;
38465;SDS011;24244;51.950;5.902;2023-05-14T01:24:36;6.38;;;4.00;;
38465;SDS011;24244;51.950;5.902;2023-05-14T01:27:05;5.72;;;3.83;;
38465;SDS011;24244;51.950;5.902;2023-05-14T01:29:47;7.07;;;3.90;;
38465;SDS011;24244;51.950;5.902;2023-05-14T01:32:17;5.70;;;4.05;;
38465;SDS011;24244;51.950;5.902;2023-05-14T01:34:48;6.28;;;4.38;;
38465;SDS011;24244;51.950;5.902;2023-05-14T01:37:17;6.15;;;4.20;;
38465;SDS011;24244;51.950;5.902;2023-05-14T01:39:47;6.35;;;4.22;;
38465;SDS011;24244;51.950;5.902;2023-05-14T01:42:17;6.65;;;3.92;;
38465;SDS011;24244;51.950;5.902;2023-05-14T01:44:43;6.82;;;4.43;;
38465;SDS011;24244;51.950;5.902;2023-05-14T01:47:10;5.88;;;4.55;;
38465;SDS011;24244;51.950;5.902;2023-05-14T01:49:37;5.68;;;4.28;;
38465;SDS011;24244;51.950;5.902;2023-05-14T01:52:05;6.38;;;4.03;;
38465;SDS011;24244;51.950;5.902;2023-05-14T01:54:35;6.55;;;5.00;;
38465;SDS011;24244;51.950;5.902;2023-05-14T01:57:01;7.60;;;4.85;;
38465;SDS011;24244;51.950;5.902;2023-05-14T01:59:28;7.22;;;4.38;;
38465;SDS011;24244;51.950;5.902;2023-05-14T02:01:55;6.30;;;4.57;;
38465;SDS011;24244;51.950;5.902;2023-05-14T02:04:22;6.00;;;4.63;;
38465;SDS011;24244;51.950;5.902;2023-05-14T02:06:48;6.13;;;4.32;;
38465;SDS011;24244;51.950;5.902;2023-05-14T02:09:15;6.68;;;4.30;;
38465;SDS011;24244;51.950;5.902;2023-05-14T02:11:43;5.75;;;3.88;;
38465;SDS011;24244;51.950;5.902;2023-05-14T02:14:10;5.38;;;4.82;;
38465;SDS011;24244;51.950;5.902;2023-05-14T02:16:37;6.68;;;4.18;;
38465;SDS011;24244;51.950;5.902;2023-05-14T02:19:04;7.80;;;5.70;;
38465;SDS011;24244;51.950;5.902;2023-05-14T02:21:30;8.68;;;5.50;;
38465;SDS011;24244;51.950;5.902;2023-05-14T02:24:00;6.07;;;4.22;;
38465;SDS011;24244;51.950;5.902;2023-05-14T02:26:26;6.70;;;4.32;;
38465;SDS011;24244;51.950;5.902;2023-05-14T02:28:55;7.18;;;4.57;;
38465;SDS011;24244;51.950;5.902;2023-05-14T02:31:22;7.13;;;4.32;;
38465;SDS011;24244;51.950;5.902;2023-05-14T02:33:49;7.40;;;4.05;;
38465;SDS011;24244;51.950;5.902;2023-05-14T02:36:16;6.75;;;5.57;;
38465;SDS011;24244;51.950;5.902;2023-05-14T02:38:43;9.05;;;5.10;;
38465;SDS011;24244;51.950;5.902;2023-05-14T02:41:10;7.65;;;4.85;;
38465;SDS011;24244;51.950;5.902;2023-05-14T02:43:37;6.72;;;4.57;;
38465;SDS011;24244;51.950;5.902;2023-05-14T02:46:05;8.52;;;5.90;;
38465;SDS011;24244;51.950;5.902;2023-05-14T02:48:32;7.75;;;5.15;;
38465;SDS011;24244;51.950;5.902;2023-05-14T02:50:59;8.68;;;4.95;;
38465;SDS011;24244;51.950;5.902;2023-05-14T02:53:26;7.93;;;5.20;;
38465;SDS011;24244;51.950;5.902;2023-05-14T02:55:52;6.80;;;4.53;;
38465;SDS011;24244;51.950;5.902;2023-05-14T02:58:20;7.22;;;4.53;;
38465;SDS011;24244;51.950;5.902;2023-05-14T03:00:53;6.28;;;4.57;;
38465;SDS011;24244;51.950;5.902;2023-05-14T03:03:27;7.25;;;4.43;;
38465;SDS011;24244;51.950;5.902;2023-05-14T03:05:55;8.02;;;5.63;;
38465;SDS011;24244;51.950;5.902;2023-05-14T03:08:23;8.10;;;4.55;;
38465;SDS011;24244;51.950;5.902;2023-05-14T03:10:50;7.03;;;4.40;;
38465;SDS011;24244;51.950;5.902;2023-05-14T03:13:16;6.65;;;4.43;;
38465;SDS011;24244;51.950;5.902;2023-05-14T03:15:46;6.47;;;5.35;;
38465;SDS011;24244;51.950;5.902;2023-05-14T03:18:12;6.88;;;4.65;;
38465;SDS011;24244;51.950;5.902;2023-05-14T03:20:41;9.90;;;4.43;;
38465;SDS011;24244;51.950;5.902;2023-05-14T03:23:09;6.72;;;4.10;;
38465;SDS011;24244;51.950;5.902;2023-05-14T03:25:36;6.95;;;4.10;;
38465;SDS011;24244;51.950;5.902;2023-05-14T03:28:03;8.30;;;4.60;;
38465;SDS011;24244;51.950;5.902;2023-05-14T03:30:30;7.80;;;4.95;;
38465;SDS011;24244;51.950;5.902;2023-05-14T03:32:57;8.55;;;5.65;;
38465;SDS011;24244;51.950;5.902;2023-05-14T03:35:24;6.15;;;4.30;;
38465;SDS011;24244;51.950;5.902;2023-05-14T03:37:52;8.68;;;4.65;;
38465;SDS011;24244;51.950;5.902;2023-05-14T03:40:19;6.82;;;4.65;;
38465;SDS011;24244;51.950;5.902;2023-05-14T03:42:47;6.82;;;5.38;;
38465;SDS011;24244;51.950;5.902;2023-05-14T03:45:13;9.20;;;4.80;;
38465;SDS011;24244;51.950;5.902;2023-05-14T03:47:40;7.13;;;4.80;;
38465;SDS011;24244;51.950;5.902;2023-05-14T03:50:07;6.88;;;5.28;;
38465;SDS011;24244;51.950;5.902;2023-05-14T03:52:34;6.22;;;4.13;;
38465;SDS011;24244;51.950;5.902;2023-05-14T03:55:02;6.75;;;5.00;;
38465;SDS011;24244;51.950;5.902;2023-05-14T03:57:30;8.05;;;5.45;;
38465;SDS011;24244;51.950;5.902;2023-05-14T03:59:57;7.63;;;4.60;;
38465;SDS011;24244;51.950;5.902;2023-05-14T04:02:23;9.20;;;4.53;;
38465;SDS011;24244;51.950;5.902;2023-05-14T04:04:50;7.20;;;4.35;;
38465;SDS011;24244;51.950;5.902;2023-05-14T04:07:17;8.98;;;4.68;;
38465;SDS011;24244;51.950;5.902;2023-05-14T04:09:44;7.15;;;4.72;;
38465;SDS011;24244;51.950;5.902;2023-05-14T04:12:12;7.88;;;5.35;;
38465;SDS011;24244;51.950;5.902;2023-05-14T04:14:39;9.38;;;5.10;;
38465;SDS011;24244;51.950;5.902;2023-05-14T04:17:06;7.50;;;4.68;;
38465;SDS011;24244;51.950;5.902;2023-05-14T04:19:33;9.18;;;5.28;;
38465;SDS011;24244;51.950;5.902;2023-05-14T04:22:00;10.40;;;5.40;;
38465;SDS011;24244;51.950;5.902;2023-05-14T04:24:26;7.38;;;5.18;;
38465;SDS011;24244;51.950;5.902;2023-05-14T04:26:53;8.23;;;4.70;;
38465;SDS011;24244;51.950;5.902;2023-05-14T04:29:21;9.20;;;6.03;;
38465;SDS011;24244;51.950;5.902;2023-05-14T04:31:48;9.98;;;6.32;;
38465;SDS011;24244;51.950;5.902;2023-05-14T04:34:15;8.98;;;5.75;;
38465;SDS011;24244;51.950;5.902;2023-05-14T04:36:42;11.10;;;5.93;;
38465;SDS011;24244;51.950;5.902;2023-05-14T04:39:09;9.90;;;5.72;;
38465;SDS011;24244;51.950;5.902;2023-05-14T04:41:37;11.57;;;6.68;;
38465;SDS011;24244;51.950;5.902;2023-05-14T04:44:04;13.10;;;7.72;;
38465;SDS011;24244;51.950;5.902;2023-05-14T04:46:32;13.30;;;7.07;;
38465;SDS011;24244;51.950;5.902;2023-05-14T04:48:59;8.35;;;6.60;;
38465;SDS011;24244;51.950;5.902;2023-05-14T04:51:26;8.23;;;5.53;;
38465;SDS011;24244;51.950;5.902;2023-05-14T04:53:53;7.07;;;5.60;;
38465;SDS011;24244;51.950;5.902;2023-05-14T04:56:20;7.10;;;4.80;;
38465;SDS011;24244;51.950;5.902;2023-05-14T04:58:47;8.57;;;5.38;;
38465;SDS011;24244;51.950;5.902;2023-05-14T05:01:14;6.82;;;4.75;;
38465;SDS011;24244;51.950;5.902;2023-05-14T05:03:43;7.90;;;5.93;;
38465;SDS011;24244;51.950;5.902;2023-05-14T05:06:10;10.50;;;5.32;;
38465;SDS011;24244;51.950;5.902;2023-05-14T05:08:37;7.90;;;5.03;;
38465;SDS011;24244;51.950;5.902;2023-05-14T05:11:04;8.93;;;4.28;;
38465;SDS011;24244;51.950;5.902;2023-05-14T05:13:30;6.93;;;4.15;;
38465;SDS011;24244;51.950;5.902;2023-05-14T05:15:57;7.47;;;5.13;;
38465;SDS011;24244;51.950;5.902;2023-05-14T05:18:24;7.72;;;5.18;;
38465;SDS011;24244;51.950;5.902;2023-05-14T05:20:52;7.03;;;5.05;;
38465;SDS011;24244;51.950;5.902;2023-05-14T05:23:22;6.43;;;4.25;;
38465;SDS011;24244;51.950;5.902;2023-05-14T05:25:49;8.18;;;5.13;;
38465;SDS011;24244;51.950;5.902;2023-05-14T05:28:17;7.80;;;5.65;;
38465;SDS011;24244;51.950;5.902;2023-05-14T05:30:44;7.53;;;5.00;;
38465;SDS011;24244;51.950;5.902;2023-05-14T05:33:11;7.90;;;4.50;;
38465;SDS011;24244;51.950;5.902;2023-05-14T05:35:38;8.90;;;4.68;;
38465;SDS011;24244;51.950;5.902;2023-05-14T05:38:06;9.13;;;5.30;;
38465;SDS011;24244;51.950;5.902;2023-05-14T05:40:33;7.00;;;4.57;;
38465;SDS011;24244;51.950;5.902;2023-05-14T05:42:59;7.28;;;4.70;;
38465;SDS011;24244;51.950;5.902;2023-05-14T05:45:26;6.72;;;3.95;;
38465;SDS011;24244;51.950;5.902;2023-05-14T05:47:53;9.00;;;6.18;;
38465;SDS011;24244;51.950;5.902;2023-05-14T05:50:20;9.25;;;5.38;;
38465;SDS011;24244;51.950;5.902;2023-05-14T05:52:48;8.93;;;4.75;;
38465;SDS011;24244;51.950;5.902;2023-05-14T05:55:16;8.40;;;5.13;;
38465;SDS011;24244;51.950;5.902;2023-05-14T05:57:43;8.48;;;5.60;;
38465;SDS011;24244;51.950;5.902;2023-05-14T06:00:10;8.93;;;5.63;;
38465;SDS011;24244;51.950;5.902;2023-05-14T06:02:40;8.07;;;4.75;;
38465;SDS011;24244;51.950;5.902;2023-05-14T06:05:08;11.77;;;5.13;;
38465;SDS011;24244;51.950;5.902;2023-05-14T06:07:36;9.32;;;5.55;;
38465;SDS011;24244;51.950;5.902;2023-05-14T06:10:03;13.27;;;6.53;;
38465;SDS011;24244;51.950;5.902;2023-05-14T06:12:33;10.23;;;6.75;;
38465;SDS011;24244;51.950;5.902;2023-05-14T06:15:00;9.68;;;6.55;;
38465;SDS011;24244;51.950;5.902;2023-05-14T06:17:26;8.60;;;6.45;;
38465;SDS011;24244;51.950;5.902;2023-05-14T06:19:53;9.05;;;6.05;;
38465;SDS011;24244;51.950;5.902;2023-05-14T06:22:21;7.18;;;5.25;;
38465;SDS011;24244;51.950;5.902;2023-05-14T06:24:48;9.85;;;5.35;;
38465;SDS011;24244;51.950;5.902;2023-05-14T06:27:15;8.80;;;4.97;;
38465;SDS011;24244;51.950;5.902;2023-05-14T06:29:43;8.70;;;6.03;;
38465;SDS011;24244;51.950;5.902;2023-05-14T06:32:10;7.75;;;4.82;;
38465;SDS011;24244;51.950;5.902;2023-05-14T06:34:40;8.95;;;5.40;;
38465;SDS011;24244;51.950;5.902;2023-05-14T06:37:10;8.65;;;5.80;;
38465;SDS011;24244;51.950;5.902;2023-05-14T06:39:37;7.72;;;5.90;;
38465;SDS011;24244;51.950;5.902;2023-05-14T06:42:04;10.23;;;5.43;;
38465;SDS011;24244;51.950;5.902;2023-05-14T06:44:32;10.70;;;5.82;;
38465;SDS011;24244;51.950;5.902;2023-05-14T06:47:00;7.45;;;5.03;;
38465;SDS011;24244;51.950;5.902;2023-05-14T06:49:27;9.02;;;4.78;;
38465;SDS011;24244;51.950;5.902;2023-05-14T06:51:54;6.88;;;5.00;;
38465;SDS011;24244;51.950;5.902;2023-05-14T06:54:20;7.57;;;4.63;;
38465;SDS011;24244;51.950;5.902;2023-05-14T06:56:47;6.65;;;4.45;;
38465;SDS011;24244;51.950;5.902;2023-05-14T06:59:17;7.40;;;4.70;;
38465;SDS011;24244;51.950;5.902;2023-05-14T07:01:44;8.07;;;4.43;;
38465;SDS011;24244;51.950;5.902;2023-05-14T07:04:14;11.05;;;5.05;;
38465;SDS011;24244;51.950;5.902;2023-05-14T07:06:41;7.13;;;4.43;;
38465;SDS011;24244;51.950;5.902;2023-05-14T07:09:07;6.70;;;3.97;;
38465;SDS011;24244;51.950;5.902;2023-05-14T07:11:35;7.88;;;4.20;;
38465;SDS011;24244;51.950;5.902;2023-05-14T07:14:02;6.45;;;4.35;;
38465;SDS011;24244;51.950;5.902;2023-05-14T07:16:29;7.53;;;4.80;;
38465;SDS011;24244;51.950;5.902;2023-05-14T07:18:56;8.50;;;4.78;;
38465;SDS011;24244;51.950;5.902;2023-05-14T07:21:24;8.10;;;5.80;;
38465;SDS011;24244;51.950;5.902;2023-05-14T07:23:51;8.23;;;4.13;;
38465;SDS011;24244;51.950;5.902;2023-05-14T07:26:18;6.57;;;4.38;;
38465;SDS011;24244;51.950;5.902;2023-05-14T07:28:45;7.53;;;4.28;;
38465;SDS011;24244;51.950;5.902;2023-05-14T07:31:11;6.07;;;3.63;;
38465;SDS011;24244;51.950;5.902;2023-05-14T07:33:38;5.38;;;4.30;;
38465;SDS011;24244;51.950;5.902;2023-05-14T07:36:05;8.85;;;4.55;;
38465;SDS011;24244;51.950;5.902;2023-05-14T07:38:34;9.30;;;4.55;;
38465;SDS011;24244;51.950;5.902;2023-05-14T07:41:01;9.05;;;4.47;;
38465;SDS011;24244;51.950;5.902;2023-05-14T07:43:28;7.75;;;5.25;;
38465;SDS011;24244;51.950;5.902;2023-05-14T07:45:55;8.52;;;5.93;;
38465;SDS011;24244;51.950;5.902;2023-05-14T07:48:21;9.65;;;6.00;;
38465;SDS011;24244;51.950;5.902;2023-05-14T07:50:48;10.20;;;5.82;;
38465;SDS011;24244;51.950;5.902;2023-05-14T07:53:16;9.77;;;5.90;;
38465;SDS011;24244;51.950;5.902;2023-05-14T07:55:45;8.23;;;5.65;;
38465;SDS011;24244;51.950;5.902;2023-05-14T07:58:13;11.35;;;7.30;;
38465;SDS011;24244;51.950;5.902;2023-05-14T08:00:41;10.00;;;6.00;;
38465;SDS011;24244;51.950;5.902;2023-05-14T08:03:08;7.53;;;5.55;;
38465;SDS011;24244;51.950;5.902;2023-05-14T08:05:35;6.50;;;4.93;;
38465;SDS011;24244;51.950;5.902;2023-05-14T08:08:01;8.73;;;5.65;;
38465;SDS011;24244;51.950;5.902;2023-05-14T08:10:28;9.93;;;5.22;;
38465;SDS011;24244;51.950;5.902;2023-05-14T08:12:57;7.60;;;4.97;;
38465;SDS011;24244;51.950;5.902;2023-05-14T08:15:24;7.32;;;4.13;;
38465;SDS011;24244;51.950;5.902;2023-05-14T08:17:53;7.30;;;4.50;;
38465;SDS011;24244;51.950;5.902;2023-05-14T08:20:20;7.03;;;4.15;;
38465;SDS011;24244;51.950;5.902;2023-05-14T08:22:47;5.80;;;4.18;;
38465;SDS011;24244;51.950;5.902;2023-05-14T08:25:14;7.95;;;4.43;;
38465;SDS011;24244;51.950;5.902;2023-05-14T08:27:41;6.70;;;3.53;;
38465;SDS011;24244;51.950;5.902;2023-05-14T08:30:10;5.88;;;3.85;;
38465;SDS011;24244;51.950;5.902;2023-05-14T08:32:38;5.50;;;3.38;;
38465;SDS011;24244;51.950;5.902;2023-05-14T08:35:07;7.63;;;3.65;;
38465;SDS011;24244;51.950;5.902;2023-05-14T08:37:35;5.85;;;4.05;;
38465;SDS011;24244;51.950;5.902;2023-05-14T08:40:02;5.13;;;3.10;;
38465;SDS011;24244;51.950;5.902;2023-05-14T08:42:29;4.20;;;3.60;;
38465;SDS011;24244;51.950;5.902;2023-05-14T08:44:59;6.03;;;3.72;;
38465;SDS011;24244;51.950;5.902;2023-05-14T08:47:29;5.00;;;3.50;;
38465;SDS011;24244;51.950;5.902;2023-05-14T08:49:58;6.80;;;3.58;;
38465;SDS011;24244;51.950;5.902;2023-05-14T08:52:28;5.47;;;3.60;;
38465;SDS011;24244;51.950;5.902;2023-05-14T08:54:56;6.07;;;3.63;;
38465;SDS011;24244;51.950;5.902;2023-05-14T08:57:25;5.95;;;3.25;;
38465;SDS011;24244;51.950;5.902;2023-05-14T08:59:53;6.95;;;3.85;;
38465;SDS011;24244;51.950;5.902;2023-05-14T09:02:21;5.05;;;3.30;;
38465;SDS011;24244;51.950;5.902;2023-05-14T09:04:53;4.63;;;2.90;;
38465;SDS011;24244;51.950;5.902;2023-05-14T09:07:22;5.00;;;3.15;;
38465;SDS011;24244;51.950;5.902;2023-05-14T09:09:49;3.88;;;3.10;;
38465;SDS011;24244;51.950;5.902;2023-05-14T09:12:16;3.72;;;2.60;;
38465;SDS011;24244;51.950;5.902;2023-05-14T09:14:43;4.97;;;2.28;;
38465;SDS011;24244;51.950;5.902;2023-05-14T09:17:10;4.90;;;2.53;;
38465;SDS011;24244;51.950;5.902;2023-05-14T09:19:38;3.53;;;2.85;;
38465;SDS011;24244;51.950;5.902;2023-05-14T09:22:08;4.70;;;3.03;;
38465;SDS011;24244;51.950;5.902;2023-05-14T09:24:38;4.95;;;3.45;;
38465;SDS011;24244;51.950;5.902;2023-05-14T09:27:05;5.57;;;3.78;;
38465;SDS011;24244;51.950;5.902;2023-05-14T09:29:32;4.53;;;3.10;;
38465;SDS011;24244;51.950;5.902;2023-05-14T09:31:59;4.78;;;2.88;;
38465;SDS011;24244;51.950;5.902;2023-05-14T09:34:33;3.95;;;2.67;;
38465;SDS011;24244;51.950;5.902;2023-05-14T09:37:04;5.03;;;2.70;;
38465;SDS011;24244;51.950;5.902;2023-05-14T09:39:33;3.75;;;3.00;;
38465;SDS011;24244;51.950;5.902;2023-05-14T09:42:04;5.18;;;3.30;;
38465;SDS011;24244;51.950;5.902;2023-05-14T09:44:32;4.95;;;2.92;;
38465;SDS011;24244;51.950;5.902;2023-05-14T09:47:00;4.50;;;2.85;;
38465;SDS011;24244;51.950;5.902;2023-05-14T09:49:27;3.70;;;2.08;;
38465;SDS011;24244;51.950;5.902;2023-05-14T09:51:53;3.17;;;2.70;;
38465;SDS011;24244;51.950;5.902;2023-05-14T09:54:24;3.65;;;2.55;;
38465;SDS011;24244;51.950;5.902;2023-05-14T09:56:53;3.70;;;2.13;;
38465;SDS011;24244;51.950;5.902;2023-05-14T09:59:21;5.18;;;2.75;;
38465;SDS011;24244;51.950;5.902;2023-05-14T10:01:48;3.47;;;2.35;;
38465;SDS011;24244;51.950;5.902;2023-05-14T10:04:19;2.60;;;2.10;;
38465;SDS011;24244;51.950;5.902;2023-05-14T10:06:48;2.28;;;1.90;;
38465;SDS011;24244;51.950;5.902;2023-05-14T10:09:18;3.25;;;2.10;;
38465;SDS011;24244;51.950;5.902;2023-05-14T10:11:52;3.97;;;2.00;;
38465;SDS011;24244;51.950;5.902;2023-05-14T10:14:25;3.30;;;1.88;;
38465;SDS011;24244;51.950;5.902;2023-05-14T10:16:59;2.63;;;1.60;;
38465;SDS011;24244;51.950;5.902;2023-05-14T10:19:28;2.95;;;1.73;;
38465;SDS011;24244;51.950;5.902;2023-05-14T10:22:03;3.15;;;2.00;;
38465;SDS011;24244;51.950;5.902;2023-05-14T10:24:33;2.67;;;1.90;;
38465;SDS011;24244;51.950;5.902;2023-05-14T10:27:06;3.30;;;1.92;;
38465;SDS011;24244;51.950;5.902;2023-05-14T10:29:34;2.20;;;1.58;;
38465;SDS011;24244;51.950;5.902;2023-05-14T10:34:44;3.10;;;2.00;;
38465;SDS011;24244;51.950;5.902;2023-05-14T10:37:11;3.67;;;2.05;;
38465;SDS011;24244;51.950;5.902;2023-05-14T10:39:44;3.38;;;1.60;;
38465;SDS011;24244;51.950;5.902;2023-05-14T10:42:17;3.05;;;1.90;;
38465;SDS011;24244;51.950;5.902;2023-05-14T10:44:52;3.28;;;2.30;;
38465;SDS011;24244;51.950;5.902;2023-05-14T10:47:33;4.05;;;1.90;;
38465;SDS011;24244;51.950;5.902;2023-05-14T10:50:03;3.25;;;2.50;;
38465;SDS011;24244;51.950;5.902;2023-05-14T10:52:32;3.40;;;2.33;;
38465;SDS011;24244;51.950;5.902;2023-05-14T10:55:07;4.32;;;2.45;;
38465;SDS011;24244;51.950;5.902;2023-05-14T10:57:40;4.60;;;2.30;;
38465;SDS011;24244;51.950;5.902;2023-05-14T11:00:12;3.88;;;2.45;;
38465;SDS011;24244;51.950;5.902;2023-05-14T11:02:41;6.07;;;2.70;;
38465;SDS011;24244;51.950;5.902;2023-05-14T11:05:09;3.45;;;2.30;;
38465;SDS011;24244;51.950;5.902;2023-05-14T11:07:40;2.85;;;2.20;;
38465;SDS011;24244;51.950;5.902;2023-05-14T11:10:08;3.90;;;2.45;;
38465;SDS011;24244;51.950;5.902;2023-05-14T11:12:37;2.83;;;1.77;;
38465;SDS011;24244;51.950;5.902;2023-05-14T11:15:07;3.30;;;2.50;;
38465;SDS011;24244;51.950;5.902;2023-05-14T11:17:36;4.15;;;2.20;;
38465;SDS011;24244;51.950;5.902;2023-05-14T11:20:07;4.13;;;2.65;;
38465;SDS011;24244;51.950;5.902;2023-05-14T11:22:36;3.50;;;2.20;;
38465;SDS011;24244;51.950;5.902;2023-05-14T11:25:05;3.70;;;2.28;;
38465;SDS011;24244;51.950;5.902;2023-05-14T11:27:35;2.92;;;2.00;;
38465;SDS011;24244;51.950;5.902;2023-05-14T11:30:10;2.92;;;2.08;;
38465;SDS011;24244;51.950;5.902;2023-05-14T11:32:38;2.97;;;1.98;;
38465;SDS011;24244;51.950;5.902;2023-05-14T11:35:07;4.32;;;2.83;;
38465;SDS011;24244;51.950;5.902;2023-05-14T11:37:50;5.13;;;3.28;;
38465;SDS011;24244;51.950;5.902;2023-05-14T11:40:18;4.03;;;2.85;;
38465;SDS011;24244;51.950;5.902;2023-05-14T11:42:49;3.22;;;2.72;;
38465;SDS011;24244;51.950;5.902;2023-05-14T11:45:25;4.78;;;2.67;;
38465;SDS011;24244;51.950;5.902;2023-05-14T11:47:55;3.95;;;2.47;;
38465;SDS011;24244;51.950;5.902;2023-05-14T11:50:25;4.55;;;2.70;;
38465;SDS011;24244;51.950;5.902;2023-05-14T11:52:55;3.95;;;2.50;;
38465;SDS011;24244;51.950;5.902;2023-05-14T11:55:22;3.80;;;2.72;;
38465;SDS011;24244;51.950;5.902;2023-05-14T11:57:50;3.20;;;2.78;;
38465;SDS011;24244;51.950;5.902;2023-05-14T12:00:20;3.40;;;2.88;;
38465;SDS011;24244;51.950;5.902;2023-05-14T12:02:53;4.00;;;2.63;;
38465;SDS011;24244;51.950;5.902;2023-05-14T12:05:23;3.38;;;2.50;;
38465;SDS011;24244;51.950;5.902;2023-05-14T12:07:51;3.17;;;2.33;;
38465;SDS011;24244;51.950;5.902;2023-05-14T12:10:18;3.70;;;2.33;;
38465;SDS011;24244;51.950;5.902;2023-05-14T12:12:48;2.65;;;1.98;;
38465;SDS011;24244;51.950;5.902;2023-05-14T12:15:18;3.75;;;1.83;;
38465;SDS011;24244;51.950;5.902;2023-05-14T12:17:50;4.93;;;1.98;;
38465;SDS011;24244;51.950;5.902;2023-05-14T12:20:23;2.90;;;2.05;;
38465;SDS011;24244;51.950;5.902;2023-05-14T12:22:51;2.95;;;2.00;;
38465;SDS011;24244;51.950;5.902;2023-05-14T12:25:20;3.15;;;2.40;;
38465;SDS011;24244;51.950;5.902;2023-05-14T12:27:47;3.35;;;2.25;;
38465;SDS011;24244;51.950;5.902;2023-05-14T12:30:14;4.25;;;2.17;;
38465;SDS011;24244;51.950;5.902;2023-05-14T12:32:47;2.72;;;2.10;;
38465;SDS011;24244;51.950;5.902;2023-05-14T12:35:20;3.55;;;2.60;;
38465;SDS011;24244;51.950;5.902;2023-05-14T12:37:48;2.65;;;1.75;;
38465;SDS011;24244;51.950;5.902;2023-05-14T12:40:15;3.35;;;2.00;;
38465;SDS011;24244;51.950;5.902;2023-05-14T12:42:45;2.90;;;2.30;;
38465;SDS011;24244;51.950;5.902;2023-05-14T12:45:13;2.80;;;2.17;;
38465;SDS011;24244;51.950;5.902;2023-05-14T12:47:42;4.32;;;2.40;;
38465;SDS011;24244;51.950;5.902;2023-05-14T12:50:10;4.85;;;2.90;;
38465;SDS011;24244;51.950;5.902;2023-05-14T12:52:40;3.35;;;2.60;;
38465;SDS011;24244;51.950;5.902;2023-05-14T12:55:09;3.20;;;2.40;;
38465;SDS011;24244;51.950;5.902;2023-05-14T12:57:38;4.95;;;2.72;;
38465;SDS011;24244;51.950;5.902;2023-05-14T13:00:05;4.80;;;2.85;;
38465;SDS011;24244;51.950;5.902;2023-05-14T13:02:46;5.35;;;2.92;;
38465;SDS011;24244;51.950;5.902;2023-05-14T13:05:15;4.88;;;2.88;;
38465;SDS011;24244;51.950;5.902;2023-05-14T13:07:44;3.47;;;2.30;;
38465;SDS011;24244;51.950;5.902;2023-05-14T13:10:11;3.10;;;2.50;;
38465;SDS011;24244;51.950;5.902;2023-05-14T13:12:38;5.15;;;3.00;;
38465;SDS011;24244;51.950;5.902;2023-05-14T13:15:06;4.13;;;2.92;;
38465;SDS011;24244;51.950;5.902;2023-05-14T13:17:34;3.70;;;2.75;;
38465;SDS011;24244;51.950;5.902;2023-05-14T13:20:01;5.13;;;2.80;;
38465;SDS011;24244;51.950;5.902;2023-05-14T13:22:30;5.13;;;2.88;;
38465;SDS011;24244;51.950;5.902;2023-05-14T13:24:58;4.40;;;2.65;;
38465;SDS011;24244;51.950;5.902;2023-05-14T13:27:25;5.50;;;2.50;;
38465;SDS011;24244;51.950;5.902;2023-05-14T13:29:53;2.72;;;2.42;;
38465;SDS011;24244;51.950;5.902;2023-05-14T13:32:21;3.47;;;2.50;;
38465;SDS011;24244;51.950;5.902;2023-05-14T13:34:49;3.42;;;2.20;;
38465;SDS011;24244;51.950;5.902;2023-05-14T13:37:18;3.25;;;2.35;;
38465;SDS011;24244;51.950;5.902;2023-05-14T13:39:46;3.03;;;2.25;;
38465;SDS011;24244;51.950;5.902;2023-05-14T13:42:17;5.07;;;2.42;;
38465;SDS011;24244;51.950;5.902;2023-05-14T13:44:45;3.55;;;2.60;;
38465;SDS011;24244;51.950;5.902;2023-05-14T13:47:15;4.22;;;2.80;;
38465;SDS011;24244;51.950;5.902;2023-05-14T13:49:42;2.92;;;2.22;;
38465;SDS011;24244;51.950;5.902;2023-05-14T13:52:09;4.85;;;3.00;;
38465;SDS011;24244;51.950;5.902;2023-05-14T13:54:37;5.60;;;2.70;;
38465;SDS011;24244;51.950;5.902;2023-05-14T13:57:05;2.92;;;2.60;;
38465;SDS011;24244;51.950;5.902;2023-05-14T13:59:34;3.85;;;2.40;;
38465;SDS011;24244;51.950;5.902;2023-05-14T14:02:02;3.67;;;2.50;;
38465;SDS011;24244;51.950;5.902;2023-05-14T14:04:30;3.92;;;2.75;;
38465;SDS011;24244;51.950;5.902;2023-05-14T14:06:57;4.28;;;3.45;;
38465;SDS011;24244;51.950;5.902;2023-05-14T14:09:24;5.70;;;3.08;;
38465;SDS011;24244;51.950;5.902;2023-05-14T14:11:51;3.47;;;2.28;;
38465;SDS011;24244;51.950;5.902;2023-05-14T14:14:18;3.95;;;3.00;;
38465;SDS011;24244;51.950;5.902;2023-05-14T14:16:50;3.97;;;2.85;;
38465;SDS011;24244;51.950;5.902;2023-05-14T14:19:17;3.50;;;2.65;;
38465;SDS011;24244;51.950;5.902;2023-05-14T14:21:45;3.63;;;2.63;;
38465;SDS011;24244;51.950;5.902;2023-05-14T14:24:13;3.13;;;2.63;;
38465;SDS011;24244;51.950;5.902;2023-05-14T14:26:42;3.38;;;2.80;;
38465;SDS011;24244;51.950;5.902;2023-05-14T14:29:09;3.45;;;2.33;;
38465;SDS011;24244;51.950;5.902;2023-05-14T14:31:36;3.30;;;2.35;;
38465;SDS011;24244;51.950;5.902;2023-05-14T14:34:07;3.40;;;2.63;;
38465;SDS011;24244;51.950;5.902;2023-05-14T14:36:35;3.70;;;2.20;;
38465;SDS011;24244;51.950;5.902;2023-05-14T14:39:02;4.63;;;2.60;;
38465;SDS011;24244;51.950;5.902;2023-05-14T14:41:31;5.88;;;3.00;;
38465;SDS011;24244;51.950;5.902;2023-05-14T14:43:59;4.78;;;2.88;;
38465;SDS011;24244;51.950;5.902;2023-05-14T14:46:30;3.83;;;2.78;;
38465;SDS011;24244;51.950;5.902;2023-05-14T14:48:57;3.95;;;3.15;;
38465;SDS011;24244;51.950;5.902;2023-05-14T14:51:27;5.07;;;3.08;;
38465;SDS011;24244;51.950;5.902;2023-05-14T14:53:55;4.03;;;3.00;;
38465;SDS011;24244;51.950;5.902;2023-05-14T14:56:23;3.38;;;2.65;;
38465;SDS011;24244;51.950;5.902;2023-05-14T14:58:50;4.07;;;2.70;;
38465;SDS011;24244;51.950;5.902;2023-05-14T15:01:17;3.88;;;2.75;;